createdAt,value
2019-04-10T00:03:25.894Z,45.75
2019-04-10T00:06:48.318Z,41.70
2019-04-10T00:09:43.778Z,41.13
2019-04-10T00:12:54.291Z,44.23
2019-04-10T00:15:26.787Z,43.83
2019-04-10T00:18:48.514Z,43.78
2019-04-10T00:24:57.771Z,39.23
2019-04-10T00:27:47.491Z,44.65
2019-04-10T00:37:51.292Z,42.00
2019-04-10T00:41:48.331Z,41.63
2019-04-10T00:44:54.900Z,39.58
2019-04-10T00:48:04.195Z,40.90
2019-04-10T00:58:22.631Z,46.20
2019-04-10T01:04:30.625Z,45.58
2019-04-10T01:18:15.047Z,60.45
2019-04-10T01:21:22.364Z,67.90
2019-04-10T01:23:59.511Z,63.85
2019-04-10T01:26:51.730Z,69.30
2019-04-10T01:30:14.063Z,72.90
2019-04-10T01:32:58.555Z,64.35
2019-04-10T01:35:49.113Z,80.57
2019-04-10T01:38:53.688Z,82.90
2019-04-10T01:41:54.392Z,89.03
2019-04-10T01:44:51.809Z,80.90
2019-04-10T01:50:35.037Z,94.92
2019-04-10T01:53:30.006Z,101.00
2019-04-10T01:56:27.063Z,86.92
2019-04-10T01:59:12.584Z,96.12
2019-04-10T02:02:03.080Z,94.75
2019-04-10T02:05:00.850Z,107.43
2019-04-10T02:07:57.830Z,113.62
2019-04-10T02:10:38.396Z,113.37
2019-04-10T02:13:29.701Z,110.70
2019-04-10T02:16:02.771Z,117.85
2019-04-10T02:18:47.888Z,116.00
2019-04-10T02:21:34.018Z,112.32
2019-04-10T02:24:47.217Z,117.80
2019-04-10T02:33:33.721Z,104.97
2019-04-10T02:36:05.919Z,104.27
2019-04-10T02:38:52.666Z,103.50
2019-04-10T02:41:14.143Z,101.72
2019-04-10T02:43:47.445Z,101.22
2019-04-10T02:46:20.077Z,109.32
2019-04-10T02:48:52.183Z,106.40
2019-04-10T02:51:26.930Z,98.07
2019-04-10T02:54:00.442Z,105.60
2019-04-10T02:56:32.751Z,102.22
2019-04-10T02:59:05.043Z,102.38
2019-04-10T03:01:38.078Z,108.60
2019-04-10T03:04:11.846Z,106.83
2019-04-10T03:06:45.232Z,101.90
2019-04-10T03:09:32.496Z,101.22
2019-04-10T03:11:51.939Z,101.58
2019-04-10T03:14:24.435Z,103.12
2019-04-10T03:16:56.571Z,107.47
2019-04-10T03:19:29.623Z,112.17
2019-04-10T03:22:01.885Z,110.88
2019-04-10T03:24:33.928Z,102.87
2019-04-10T03:27:05.983Z,107.90
2019-04-10T03:29:38.146Z,102.62
2019-04-10T03:32:33.241Z,105.60
2019-04-10T03:35:08.165Z,94.20
2019-04-10T03:37:40.374Z,100.65
2019-04-10T03:40:13.318Z,102.35
2019-04-10T03:42:45.496Z,106.63
2019-04-10T03:45:17.439Z,101.07
2019-04-10T03:47:49.461Z,104.75
2019-04-10T03:50:21.613Z,107.20
2019-04-10T03:52:55.846Z,101.12
2019-04-10T03:55:27.791Z,98.85
2019-04-10T03:58:00.798Z,103.45
2019-04-10T04:00:32.965Z,111.42
2019-04-10T04:03:04.969Z,108.70
2019-04-10T04:05:37.282Z,109.03
2019-04-10T04:08:09.317Z,111.50
2019-04-10T04:10:42.595Z,107.20
2019-04-10T04:13:15.324Z,108.78
2019-04-10T04:15:48.374Z,101.90
2019-04-10T04:18:21.391Z,112.52
2019-04-10T04:21:01.536Z,97.00
2019-04-10T04:23:29.825Z,98.75
2019-04-10T04:26:02.972Z,112.77
2019-04-10T04:28:36.218Z,112.20
2019-04-10T04:31:09.415Z,110.32
2019-04-10T04:33:41.797Z,111.32
2019-04-10T04:36:13.977Z,122.92
2019-04-10T04:38:46.055Z,115.67
2019-04-10T04:41:18.191Z,115.50
2019-04-10T04:43:50.237Z,113.90
2019-04-10T04:46:22.476Z,123.75
2019-04-10T04:48:54.420Z,107.22
2019-04-10T04:51:27.299Z,117.93
2019-04-10T04:53:59.174Z,106.10
2019-04-10T04:56:31.721Z,105.03
2019-04-10T04:59:03.776Z,101.92
2019-04-10T05:01:39.046Z,105.25
2019-04-10T05:04:11.229Z,113.03
2019-04-10T05:06:45.829Z,102.50
2019-04-10T05:09:28.795Z,105.58
2019-04-10T05:11:51.501Z,102.75
2019-04-10T05:14:25.610Z,100.75
2019-04-10T05:16:57.658Z,103.72
2019-04-10T05:19:29.813Z,100.60
2019-04-10T05:22:02.039Z,103.85
2019-04-10T05:24:36.239Z,107.45
2019-04-10T05:27:08.418Z,98.67
2019-04-10T05:29:40.953Z,97.70
2019-04-10T05:32:14.536Z,95.60
2019-04-10T05:34:50.347Z,104.25
2019-04-10T05:37:21.296Z,86.17
2019-04-10T05:39:53.923Z,93.85
2019-04-10T05:42:27.219Z,96.32
2019-04-10T05:44:59.247Z,92.85
2019-04-10T05:47:32.353Z,105.12
2019-04-10T05:50:06.026Z,106.45
2019-04-10T05:52:39.597Z,99.75
2019-04-10T05:55:11.959Z,103.22
2019-04-10T05:57:44.797Z,89.62
2019-04-10T06:00:18.872Z,96.45
2019-04-10T06:02:50.932Z,95.53
2019-04-10T06:05:23.043Z,89.72
2019-04-10T06:07:55.211Z,94.37
2019-04-10T06:10:27.370Z,84.85
2019-04-10T06:13:00.501Z,89.95
2019-04-10T06:15:32.945Z,87.90
2019-04-10T06:18:05.074Z,91.22
2019-04-10T06:20:37.631Z,93.47
2019-04-10T06:23:09.850Z,93.52
2019-04-10T06:25:43.430Z,80.45
2019-04-10T06:28:16.946Z,78.85
2019-04-10T06:30:50.144Z,84.20
2019-04-10T06:33:22.420Z,89.45
2019-04-10T06:35:55.148Z,74.17
2019-04-10T06:38:28.587Z,77.05
2019-04-10T06:41:02.158Z,74.12
2019-04-10T06:43:34.229Z,75.60
2019-04-10T06:46:06.632Z,74.58
2019-04-10T06:48:38.851Z,76.07
2019-04-10T06:51:12.289Z,73.85
2019-04-10T06:53:44.978Z,75.15
2019-04-10T06:56:17.004Z,87.40
2019-04-10T06:58:49.906Z,73.50
2019-04-10T07:01:24.268Z,78.25
2019-04-10T07:04:02.107Z,78.37
2019-04-10T07:06:44.985Z,75.90
2019-04-10T07:09:05.678Z,77.90
2019-04-10T07:11:39.808Z,73.40
2019-04-10T07:14:14.252Z,70.83
2019-04-10T07:16:48.613Z,68.40
2019-04-10T07:19:20.595Z,71.87
2019-04-10T07:21:52.959Z,74.85
2019-04-10T07:24:25.178Z,72.15
2019-04-10T07:27:00.230Z,70.22
2019-04-10T07:29:31.430Z,71.47
2019-04-10T07:32:07.783Z,73.20
2019-04-10T07:34:37.963Z,64.47
2019-04-10T07:37:12.138Z,77.50
2019-04-10T07:39:45.047Z,70.78
2019-04-10T07:42:26.731Z,76.85
2019-04-10T07:44:56.212Z,71.90
2019-04-10T07:47:27.212Z,69.07
2019-04-10T07:50:01.755Z,71.65
2019-04-10T07:52:33.677Z,76.95
2019-04-10T07:55:08.509Z,61.75
2019-04-10T07:57:44.743Z,66.33
2019-04-10T08:00:16.540Z,71.92
2019-04-10T08:03:02.317Z,68.15
2019-04-10T08:05:35.392Z,70.97
2019-04-10T08:08:08.689Z,71.80
2019-04-10T08:10:42.400Z,67.82
2019-04-10T08:13:16.126Z,70.80
2019-04-10T08:15:48.705Z,70.60
2019-04-10T08:18:21.220Z,67.03
2019-04-10T08:20:53.650Z,65.10
2019-04-10T08:23:26.114Z,67.15
2019-04-10T08:26:00.110Z,70.03
2019-04-10T08:28:32.876Z,69.42
2019-04-10T08:31:08.668Z,66.33
2019-04-10T08:34:06.568Z,72.37
2019-04-10T08:36:39.485Z,68.70
2019-04-10T08:39:27.742Z,68.37
2019-04-10T08:41:50.028Z,63.28
2019-04-10T08:44:24.323Z,64.10
2019-04-10T08:46:58.143Z,58.40
2019-04-10T08:49:31.023Z,62.30
2019-04-10T08:52:04.022Z,64.82
2019-04-10T08:54:36.424Z,64.05
2019-04-10T08:57:09.611Z,69.40
2019-04-10T08:59:46.929Z,68.25
2019-04-10T09:02:20.107Z,66.92
2019-04-10T09:04:53.182Z,66.85
2019-04-10T09:07:26.913Z,57.27
2019-04-10T09:10:10.387Z,60.20
2019-04-10T09:16:28.838Z,59.67
2019-04-10T09:19:01.874Z,62.67
2019-04-10T09:21:34.648Z,57.75
2019-04-10T09:24:06.833Z,63.23
2019-04-10T09:26:39.045Z,57.95
2019-04-10T09:29:11.903Z,65.30
2019-04-10T09:31:46.034Z,65.17
2019-04-10T09:34:21.494Z,63.28
2019-04-10T09:36:53.636Z,56.85
2019-04-10T09:39:27.627Z,58.00
2019-04-10T09:42:00.951Z,57.93
2019-04-10T09:44:46.563Z,58.95
2019-04-10T09:47:18.714Z,61.60
2019-04-10T09:50:03.252Z,62.55
2019-04-10T09:52:35.800Z,57.35
2019-04-10T09:55:08.085Z,60.23
2019-04-10T09:57:40.901Z,63.80
2019-04-10T10:00:13.876Z,61.63
2019-04-10T10:02:47.651Z,61.25
2019-04-10T10:05:20.290Z,55.33
2019-04-10T10:07:53.611Z,55.88
2019-04-10T10:10:26.178Z,61.30
2019-04-10T10:12:59.105Z,62.05
2019-04-10T10:15:31.525Z,66.95
2019-04-10T10:18:03.685Z,57.53
2019-04-10T10:20:35.812Z,61.20
2019-04-10T10:23:08.227Z,58.60
2019-04-10T10:25:41.466Z,58.38
2019-04-10T10:28:13.678Z,61.55
2019-04-10T10:30:45.816Z,57.33
2019-04-10T10:33:17.900Z,57.93
2019-04-10T10:35:50.009Z,54.48
2019-04-10T10:38:23.085Z,61.30
2019-04-10T10:40:55.233Z,58.87
2019-04-10T10:43:28.691Z,49.13
2019-04-10T10:46:01.058Z,60.70
2019-04-10T10:48:33.015Z,60.78
2019-04-10T10:51:08.657Z,67.05
2019-04-10T10:53:40.813Z,70.50
2019-04-10T10:56:13.977Z,57.03
2019-04-10T10:58:46.243Z,56.18
2019-04-10T11:01:18.354Z,65.97
2019-04-10T11:03:51.476Z,59.15
2019-04-10T11:06:24.684Z,59.88
2019-04-10T11:08:56.936Z,64.03
2019-04-10T11:11:29.051Z,65.62
2019-04-10T11:14:01.326Z,58.55
2019-04-10T11:16:33.917Z,51.80
2019-04-10T11:19:08.149Z,51.45
2019-04-10T11:21:42.962Z,59.60
2019-04-10T11:24:15.220Z,47.90
2019-04-10T11:26:47.347Z,58.38
2019-04-10T11:29:21.914Z,54.65
2019-04-10T11:31:55.493Z,56.05
2019-04-10T11:34:29.243Z,49.60
2019-04-10T11:37:20.281Z,54.20
2019-04-10T11:39:38.338Z,55.98
2019-04-10T11:42:10.074Z,49.88
2019-04-10T11:44:45.645Z,57.00
2019-04-10T11:47:17.350Z,48.45
2019-04-10T11:49:49.721Z,54.18
2019-04-10T11:52:33.009Z,55.73
2019-04-10T11:55:05.109Z,47.95
2019-04-10T11:57:32.107Z,48.98
2019-04-10T12:00:06.115Z,44.38
2019-04-10T12:02:39.434Z,49.85
2019-04-10T12:05:18.601Z,53.10
2019-04-10T12:08:09.613Z,46.35
2019-04-10T12:12:54.379Z,46.50
2019-04-10T12:15:26.265Z,53.70
2019-04-10T12:17:58.371Z,43.58
2019-04-10T12:20:31.347Z,56.98
2019-04-10T12:23:03.534Z,47.45
2019-04-10T12:25:36.570Z,45.70
2019-04-10T12:28:09.591Z,49.48
2019-04-10T12:30:42.337Z,42.08
2019-04-10T12:33:14.403Z,46.80
2019-04-10T12:35:47.777Z,42.08
2019-04-10T12:38:19.946Z,43.92
2019-04-10T12:40:52.947Z,49.40
2019-04-10T12:43:25.887Z,45.05
2019-04-10T12:45:58.165Z,45.10
2019-04-10T12:48:30.456Z,40.78
2019-04-10T12:51:03.447Z,44.53
2019-04-10T12:53:35.915Z,42.78
2019-04-10T12:56:08.230Z,41.48
2019-04-10T12:58:40.310Z,41.37
2019-04-10T13:01:12.504Z,41.92
2019-04-10T13:03:44.717Z,41.95
2019-04-10T13:06:17.937Z,38.23
2019-04-10T13:09:00.767Z,38.48
2019-04-10T13:11:24.572Z,41.83
2019-04-10T13:13:58.046Z,36.65
2019-04-10T13:16:30.303Z,41.35
2019-04-10T13:19:02.831Z,35.58
2019-04-10T13:21:35.072Z,45.78
2019-04-10T13:24:09.547Z,35.60
2019-04-10T13:26:42.007Z,41.08
2019-04-10T13:29:14.230Z,37.40
2019-04-10T13:31:46.721Z,35.15
2019-04-10T13:34:19.694Z,36.13
2019-04-10T13:36:52.222Z,35.52
2019-04-10T13:39:24.814Z,30.20
2019-04-10T13:42:07.182Z,36.23
2019-04-10T13:44:40.408Z,31.85
2019-04-10T13:47:13.654Z,37.20
2019-04-10T13:49:46.341Z,36.93
2019-04-10T13:52:20.861Z,30.20
2019-04-10T13:54:52.838Z,28.52
2019-04-10T13:57:26.499Z,29.77
2019-04-10T13:59:59.499Z,28.35
2019-04-10T14:02:37.538Z,31.42
2019-04-10T14:05:13.726Z,28.57
2019-04-10T14:07:46.391Z,34.73
2019-04-10T14:10:20.918Z,27.15
2019-04-10T14:12:53.530Z,29.77
2019-04-10T14:15:30.216Z,31.55
2019-04-10T14:18:04.000Z,28.65
2019-04-10T14:20:45.729Z,28.27
2019-04-10T14:23:29.325Z,27.95
2019-04-10T14:26:46.374Z,27.15
2019-04-10T14:29:18.477Z,32.35
2019-04-10T14:31:56.623Z,26.65
2019-04-10T14:34:30.412Z,30.80
2019-04-10T14:37:03.363Z,27.73
2019-04-10T14:39:35.917Z,27.85
2019-04-10T14:42:08.656Z,29.32
2019-04-10T14:44:41.046Z,26.50
2019-04-10T14:47:14.901Z,27.13
2019-04-10T14:49:47.253Z,27.40
2019-04-10T14:52:19.436Z,30.88
2019-04-10T14:54:52.333Z,29.07
2019-04-10T14:57:26.586Z,26.45
2019-04-10T14:59:58.815Z,29.98
2019-04-10T15:02:32.777Z,28.55
2019-04-10T15:05:05.817Z,27.58
2019-04-10T15:07:37.865Z,32.70
2019-04-10T15:10:10.894Z,28.00
2019-04-10T15:12:43.788Z,33.55
2019-04-10T15:15:18.458Z,27.30
2019-04-10T15:17:50.594Z,27.42
2019-04-10T15:20:22.934Z,35.03
2019-04-10T15:23:01.474Z,31.97
2019-04-10T15:25:33.721Z,28.77
2019-04-10T15:28:06.472Z,28.42
2019-04-10T15:30:39.029Z,33.35
2019-04-10T15:33:12.139Z,28.55
2019-04-10T15:35:46.823Z,30.12
2019-04-10T15:38:30.920Z,30.65
2019-04-10T15:41:37.158Z,35.40
2019-04-10T15:44:16.396Z,29.00
2019-04-10T15:47:10.566Z,33.85
2019-04-10T15:49:55.393Z,32.58
2019-04-10T15:52:35.418Z,29.30
2019-04-10T15:55:13.371Z,33.30
2019-04-10T15:57:53.126Z,31.02
2019-04-10T16:00:21.134Z,34.05
2019-04-10T16:02:54.038Z,33.78
2019-04-10T16:05:27.206Z,30.27
2019-04-10T16:07:59.423Z,28.07
2019-04-10T16:10:46.225Z,31.00
2019-04-10T16:13:26.402Z,31.17
2019-04-10T16:16:05.067Z,30.12
2019-04-10T16:18:37.479Z,26.87
2019-04-10T16:21:10.386Z,33.42
2019-04-10T16:23:47.986Z,32.53
2019-04-10T16:26:21.192Z,33.28
2019-04-10T16:28:53.634Z,34.85
2019-04-10T16:31:25.953Z,35.75
2019-04-10T16:35:05.188Z,30.52
2019-04-10T16:37:42.327Z,31.77
2019-04-10T16:40:18.534Z,34.55
2019-04-10T16:42:55.096Z,35.23
2019-04-10T16:45:28.447Z,37.13
2019-04-10T16:48:00.863Z,34.10
2019-04-10T16:50:34.223Z,39.13
2019-04-10T16:53:06.421Z,36.53
2019-04-10T16:55:38.788Z,35.50
2019-04-10T16:58:11.675Z,36.75
2019-04-10T17:00:45.214Z,39.70
2019-04-10T17:03:17.713Z,46.95
2019-04-10T17:05:50.095Z,37.67
2019-04-10T17:08:22.098Z,42.35
2019-04-10T17:10:54.191Z,56.42
2019-04-10T17:13:28.838Z,47.67
2019-04-10T17:16:07.341Z,43.02
2019-04-10T17:18:39.541Z,36.30
2019-04-10T17:21:13.000Z,42.15
2019-04-10T17:23:55.210Z,36.88
2019-04-10T17:26:27.608Z,38.13
2019-04-10T17:29:00.773Z,41.50
2019-04-10T17:31:33.039Z,37.88
2019-04-10T17:34:06.151Z,39.30
2019-04-10T17:36:38.247Z,38.80
2019-04-10T17:39:16.258Z,41.63
2019-04-10T17:41:50.240Z,39.63
2019-04-10T17:44:23.521Z,38.65
2019-04-10T17:46:57.619Z,35.28
2019-04-10T17:49:29.980Z,38.98
2019-04-10T17:52:03.802Z,35.98
2019-04-10T17:54:36.667Z,37.55
2019-04-10T17:57:09.017Z,68.28
2019-04-10T17:59:40.973Z,47.13
2019-04-10T18:02:13.759Z,47.90
2019-04-10T18:04:46.442Z,44.40
2019-04-10T18:07:19.490Z,38.83
2019-04-10T18:09:53.020Z,37.45
2019-04-10T18:12:25.432Z,38.92
2019-04-10T18:14:57.650Z,37.38
2019-04-10T18:17:29.588Z,31.97
2019-04-10T18:20:02.988Z,35.70
2019-04-10T18:22:36.405Z,32.85
2019-04-10T18:25:09.722Z,37.23
2019-04-10T18:27:42.856Z,38.33
2019-04-10T18:30:17.438Z,36.13
2019-04-10T18:33:00.448Z,38.00
2019-04-10T18:35:33.676Z,39.65
2019-04-10T18:38:06.290Z,39.75
2019-04-10T18:40:52.206Z,41.83
2019-04-10T18:43:25.918Z,32.75
2019-04-10T18:46:10.409Z,35.83
2019-04-10T18:48:47.216Z,34.48
2019-04-10T18:51:21.671Z,39.78
2019-04-10T18:53:57.585Z,45.80
2019-04-10T18:56:33.450Z,34.58
2019-04-10T18:59:12.368Z,37.73
2019-04-10T19:02:07.720Z,37.93
2019-04-10T19:04:49.566Z,36.55
2019-04-10T19:07:36.494Z,37.63
2019-04-10T19:10:22.114Z,39.95
2019-04-10T19:13:05.548Z,38.63
2019-04-10T19:15:45.202Z,33.18
2019-04-10T19:18:25.898Z,39.67
2019-04-10T19:21:05.299Z,37.35
2019-04-10T19:23:45.563Z,35.45
2019-04-10T19:26:27.430Z,33.02
2019-04-10T19:29:17.180Z,36.93
2019-04-10T19:31:56.531Z,37.48
2019-04-10T19:34:37.198Z,38.42
2019-04-10T19:37:14.494Z,36.85
2019-04-10T19:39:58.449Z,37.48
2019-04-10T19:42:33.454Z,35.25
2019-04-10T19:45:12.013Z,36.40
2019-04-10T19:47:44.667Z,43.38
2019-04-10T19:50:19.335Z,38.02
2019-04-10T19:52:53.180Z,40.63
2019-04-10T19:55:25.649Z,38.40
2019-04-10T19:58:00.345Z,39.98
2019-04-10T20:00:35.371Z,42.88
2019-04-10T20:03:07.795Z,39.83
2019-04-10T20:05:41.386Z,37.58
2019-04-10T20:08:13.738Z,35.73
2019-04-10T20:10:45.788Z,38.30
2019-04-10T20:13:18.706Z,37.90
2019-04-10T20:15:50.980Z,38.33
2019-04-10T20:18:24.406Z,34.73
2019-04-10T20:20:56.859Z,38.53
2019-04-10T20:23:29.887Z,34.08
2019-04-10T20:26:03.309Z,32.35
2019-04-10T20:28:36.514Z,33.38
2019-04-10T20:31:13.126Z,39.10
2019-04-10T20:33:45.327Z,28.65
2019-04-10T20:36:17.253Z,32.53
2019-04-10T20:38:50.262Z,34.67
2019-04-10T20:41:22.692Z,34.23
2019-04-10T20:43:55.377Z,31.55
2019-04-10T20:46:28.477Z,31.00
2019-04-10T20:49:00.613Z,29.48
2019-04-10T20:51:32.997Z,32.20
2019-04-10T20:54:04.990Z,30.32
2019-04-10T20:56:37.133Z,33.42
2019-04-10T20:59:09.960Z,30.17
2019-04-10T21:01:42.569Z,33.73
2019-04-10T21:04:15.185Z,24.12
2019-04-10T21:06:48.167Z,24.75
2019-04-10T21:09:20.511Z,20.25
2019-04-10T21:12:02.074Z,25.75
2019-04-10T21:14:27.507Z,20.23
2019-04-10T21:17:00.393Z,23.18
2019-04-10T21:19:35.493Z,24.12
2019-04-10T21:22:08.115Z,22.80
2019-04-10T21:27:11.308Z,23.25
2019-04-10T21:29:54.954Z,26.57
2019-04-10T21:32:34.820Z,23.83
2019-04-10T21:35:10.010Z,24.60
2019-04-10T21:37:42.369Z,22.90
2019-04-10T21:40:15.187Z,25.17
2019-04-10T21:42:47.711Z,18.52
2019-04-10T21:52:53.589Z,21.47
2019-04-10T21:55:26.788Z,29.77
2019-04-10T21:57:59.586Z,21.70
2019-04-10T22:00:53.065Z,19.52
2019-04-10T22:03:25.957Z,19.23
2019-04-10T22:06:15.737Z,24.05
2019-04-10T22:08:58.331Z,23.77
2019-04-10T22:11:30.864Z,21.65
2019-04-10T22:14:02.896Z,19.75
2019-04-10T22:16:35.756Z,25.00
2019-04-10T22:19:07.997Z,24.10
2019-04-10T22:21:40.037Z,24.35
2019-04-10T22:24:12.122Z,20.92
2019-04-10T22:26:44.537Z,20.43
2019-04-10T22:29:17.621Z,19.27
2019-04-10T22:31:49.730Z,21.20
2019-04-10T22:34:21.901Z,29.45
2019-04-10T22:36:53.818Z,22.98
2019-04-10T22:39:27.449Z,22.73
2019-04-10T22:41:59.553Z,17.40
2019-04-10T22:44:39.180Z,20.70
2019-04-10T22:47:07.244Z,16.93
2019-04-10T22:49:39.387Z,20.77
2019-04-10T22:52:11.451Z,17.57
2019-04-10T22:54:44.347Z,20.82
2019-04-10T22:57:16.484Z,17.65
2019-04-10T22:59:48.862Z,21.50
2019-04-10T23:02:21.466Z,16.00
2019-04-10T23:04:53.535Z,18.10
2019-04-10T23:07:26.061Z,15.45
2019-04-10T23:09:58.254Z,15.65
2019-04-10T23:12:30.454Z,20.20
2019-04-10T23:15:03.006Z,16.15
2019-04-10T23:17:36.956Z,20.55
2019-04-10T23:20:09.168Z,17.65
2019-04-10T23:22:41.146Z,21.50
2019-04-10T23:25:13.219Z,23.52
2019-04-10T23:27:46.113Z,20.23
2019-04-10T23:30:19.953Z,24.30
2019-04-10T23:32:53.510Z,20.92
2019-04-10T23:35:25.945Z,20.70
2019-04-10T23:37:57.904Z,19.45
2019-04-10T23:40:31.092Z,17.95
2019-04-10T23:43:12.268Z,18.75
2019-04-10T23:45:37.705Z,19.30
2019-04-10T23:48:10.772Z,20.88
2019-04-10T23:50:43.583Z,19.73
2019-04-10T23:53:16.165Z,19.35
2019-04-10T23:55:48.325Z,18.05
2019-04-10T23:58:20.495Z,21.27
